Time;durP1;ratioP1;P1;durP2;ratioP2;P2;SDS_P1;SDS_P2;PMS_P1;PMS_P2;Temp;Humidity;BMP_temperature;BMP_pressure;BME280_temperature;BME280_humidity;BME280_pressure;Samples;Min_cycle;Max_cycle;Signal;HPM_P1;HPM_P2
2022/11/07 00:00:07;;;;;;;;;;;;;;;;;;4991205;28;4674;-60
2022/11/07 00:02:34;;;;;;;;;;;;;;;;;;5010669;28;5003;-63
2022/11/07 00:05:00;;;;;;;;;;;;;;;;;;5025012;28;4972;-62
2022/11/07 00:07:25;;;;;;;;;;;;;;;;;;5010130;28;5283;-62
2022/11/07 00:09:50;;;;;;;;;;;;;;;;;;5005870;28;2147;-63
2022/11/07 00:12:16;;;;;;;;;;;;;;;;;;5013764;28;4791;-63
2022/11/07 00:14:41;;;;;;;;;;;;;;;;;;5012867;28;5046;-63
2022/11/07 00:17:08;;;;;;;;;;;;;;;;;;5024890;28;5188;-61
2022/11/07 00:19:34;;;;;;;;;;;;;;;;;;5007258;28;4511;-62
2022/11/07 00:21:59;;;;;;;;;;;;;;;;;;5016622;28;4529;-62
2022/11/07 00:24:24;;;;;;;;;;;;;;;;;;5006988;28;2061;-62
2022/11/07 00:26:50;;;;;;;;;;;;;;;;;;5023154;28;4535;-66
2022/11/07 00:29:16;;;;;;;;;;;;;;;;;;5015303;28;4751;-63
2022/11/07 00:31:41;;;;;;;;;;;;;;;;;;5024903;28;5758;-62
2022/11/07 00:34:06;;;;;;;;;;;;;;;;;;5019515;28;5112;-62
2022/11/07 00:36:32;;;;;;;;;;;;;;;;;;5013913;28;1867;-62
2022/11/07 00:38:57;;;;;;;;;;;;;;;;;;5006296;28;5092;-63
2022/11/07 00:41:22;;;;;;;;;;;;;;;;;;5021166;28;5079;-63
2022/11/07 00:43:48;;;;;;;;;;;;;;;;;;5021130;28;5119;-62
2022/11/07 00:46:13;;;;;;;;;;;;;;;;;;5024029;28;5296;-63
2022/11/07 00:48:39;;;;;;;;;;;;;;;;;;5005560;28;1122;-62
2022/11/07 00:51:07;;;;;;;;;;;;;;;;;;5005366;28;5035;-62
2022/11/07 00:53:32;;;;;;;;;;;;;;;;;;5010181;28;4496;-62
2022/11/07 00:56:01;;;;;;;;;;;;;;;;;;5007426;28;4980;-61
2022/11/07 00:58:26;;;;;;;;;;;;;;;;;;5012016;28;5025;-63
2022/11/07 01:00:51;;;;;;;;;;;;;;;;;;5025164;28;1902;-62
2022/11/07 01:06:01;;;;;;;;;;;;;;;;;;5025143;28;4460;-63
2022/11/07 01:08:26;;;;;;;;;;;;;;;;;;5002509;28;5138;-63
2022/11/07 01:10:51;;;;;;;;;;;;;;;;;;5011040;28;5350;-63
2022/11/07 01:13:17;;;;;;;;;;;;;;;;;;5027226;28;5071;-63
2022/11/07 01:15:42;;;;;;;;;;;;;;;;;;5026329;28;1854;-62
2022/11/07 01:18:07;;;;;;;;;;;;;;;;;;5013739;28;4460;-62
2022/11/07 01:20:33;;;;;;;;;;;;;;;;;;4996473;28;4701;-61
2022/11/07 01:22:58;;;;;;;;;;;;;;;;;;5024439;28;5055;-61
2022/11/07 01:25:23;;;;;;;;;;;;;;;;;;5004541;28;4860;-63
2022/11/07 01:27:49;;;;;;;;;;;;;;;;;;5011469;28;4597;-62
2022/11/07 01:30:14;;;;;;;;;;;;;;;;;;5011973;28;5010;-62
2022/11/07 01:32:39;;;;;;;;;;;;;;;;;;5006573;28;5221;-62
2022/11/07 01:35:05;;;;;;;;;;;;;;;;;;5005640;28;5057;-61
2022/11/07 01:37:30;;;;;;;;;;;;;;;;;;5012877;28;5025;-61
2022/11/07 01:39:55;;;;;;;;;;;;;;;;;;5019159;28;4671;-63
2022/11/07 01:42:20;;;;;;;;;;;;;;;;;;4993197;28;2334;-62
2022/11/07 01:44:50;;;;;;;;;;;;;;;;;;5009702;28;5095;-62
2022/11/07 01:47:15;;;;;;;;;;;;;;;;;;5005483;28;5127;-62
2022/11/07 01:49:41;;;;;;;;;;;;;;;;;;4992837;28;4502;-60
2022/11/07 01:52:12;;;;;;;;;;;;;;;;;;4993044;28;4825;-63
2022/11/07 01:54:43;;;;;;;;;;;;;;;;;;5011819;28;1879;-64
2022/11/07 01:57:09;;;;;;;;;;;;;;;;;;5017403;28;5033;-62
2022/11/07 01:59:34;;;;;;;;;;;;;;;;;;5009954;28;4541;-61
2022/11/07 02:02:00;;;;;;;;;;;;;;;;;;4991360;28;5105;-62
2022/11/07 02:04:26;;;;;;;;;;;;;;;;;;4979969;28;5188;-62
2022/11/07 02:06:53;;;;;;;;;;;;;;;;;;5009143;28;1610;-62
2022/11/07 02:09:18;;;;;;;;;;;;;;;;;;5010699;28;5077;-62
2022/11/07 02:11:44;;;;;;;;;;;;;;;;;;5015694;28;5270;-62
2022/11/07 02:14:13;;;;;;;;;;;;;;;;;;5020977;28;4488;-63
2022/11/07 02:16:39;;;;;;;;;;;;;;;;;;4974546;28;4935;-63
2022/11/07 02:19:04;;;;;;;;;;;;;;;;;;5010957;28;5122;-62
2022/11/07 02:21:33;;;;;;;;;;;;;;;;;;4991346;28;1325;-62
2022/11/07 02:24:08;;;;;;;;;;;;;;;;;;4992541;28;5066;-62
2022/11/07 02:26:33;;;;;;;;;;;;;;;;;;5019347;28;5159;-62
2022/11/07 02:28:59;;;;;;;;;;;;;;;;;;5007244;28;5101;-61
2022/11/07 02:31:24;;;;;;;;;;;;;;;;;;5002867;28;5001;-63
2022/11/07 02:33:49;;;;;;;;;;;;;;;;;;5010291;28;1134;-62
2022/11/07 02:36:17;;;;;;;;;;;;;;;;;;4991414;28;4998;-62
2022/11/07 02:38:43;;;;;;;;;;;;;;;;;;4990022;28;5128;-62
2022/11/07 02:41:12;;;;;;;;;;;;;;;;;;4989299;28;5063;-63
2022/11/07 02:43:38;;;;;;;;;;;;;;;;;;4974816;28;5129;-62
2022/11/07 02:46:04;;;;;;;;;;;;;;;;;;4991221;28;4959;-61
2022/11/07 02:48:30;;;;;;;;;;;;;;;;;;5010329;28;1818;-61
2022/11/07 02:50:55;;;;;;;;;;;;;;;;;;5008905;28;4456;-61
2022/11/07 02:53:20;;;;;;;;;;;;;;;;;;5009980;28;5106;-62
2022/11/07 02:55:46;;;;;;;;;;;;;;;;;;5018553;28;4663;-62
2022/11/07 02:58:11;;;;;;;;;;;;;;;;;;5007026;28;4963;-63
2022/11/07 03:00:36;;;;;;;;;;;;;;;;;;5009957;28;1663;-63
2022/11/07 03:03:01;;;;;;;;;;;;;;;;;;5007449;28;5412;-63
2022/11/07 03:05:27;;;;;;;;;;;;;;;;;;5009701;28;5448;-62
2022/11/07 03:07:52;;;;;;;;;;;;;;;;;;5007371;28;4885;-62
2022/11/07 03:10:19;;;;;;;;;;;;;;;;;;5016152;28;5035;-63
2022/11/07 03:12:44;;;;;;;;;;;;;;;;;;5000446;28;1922;-64
2022/11/07 03:15:10;;;;;;;;;;;;;;;;;;5009014;28;4875;-62
2022/11/07 03:17:35;;;;;;;;;;;;;;;;;;5006619;28;6324;-63
2022/11/07 03:20:00;;;;;;;;;;;;;;;;;;5001804;28;4782;-62
2022/11/07 03:22:26;;;;;;;;;;;;;;;;;;5009036;28;5069;-62
2022/11/07 03:24:51;;;;;;;;;;;;;;;;;;4991238;28;1922;-62
2022/11/07 03:27:17;;;;;;;;;;;;;;;;;;5010083;28;4931;-63
2022/11/07 03:29:42;;;;;;;;;;;;;;;;;;5013621;28;5077;-62
2022/11/07 03:32:07;;;;;;;;;;;;;;;;;;5004164;28;5483;-61
2022/11/07 03:34:32;;;;;;;;;;;;;;;;;;5007720;28;4620;-61
2022/11/07 03:36:58;;;;;;;;;;;;;;;;;;4999421;28;5145;-62
2022/11/07 03:39:24;;;;;;;;;;;;;;;;;;4993590;28;1774;-62
2022/11/07 03:41:49;;;;;;;;;;;;;;;;;;5004699;28;4440;-63
2022/11/07 03:44:14;;;;;;;;;;;;;;;;;;4991983;28;4460;-61
2022/11/07 03:46:39;;;;;;;;;;;;;;;;;;5015355;28;5084;-62
2022/11/07 03:49:04;;;;;;;;;;;;;;;;;;5008157;28;5089;-61
2022/11/07 03:51:30;;;;;;;;;;;;;;;;;;5015224;28;1914;-62
2022/11/07 03:53:55;;;;;;;;;;;;;;;;;;5005406;28;4494;-62
2022/11/07 03:56:20;;;;;;;;;;;;;;;;;;5009242;28;5114;-62
2022/11/07 03:58:46;;;;;;;;;;;;;;;;;;5004671;28;4595;-61
2022/11/07 04:01:12;;;;;;;;;;;;;;;;;;5008100;28;4867;-62
2022/11/07 04:03:37;;;;;;;;;;;;;;;;;;4996426;28;1796;-62
2022/11/07 04:06:02;;;;;;;;;;;;;;;;;;4989579;28;5227;-62
2022/11/07 04:08:27;;;;;;;;;;;;;;;;;;4975322;28;5119;-63
2022/11/07 04:10:53;;;;;;;;;;;;;;;;;;4989503;28;4463;-63
2022/11/07 04:18:54;;;;;;;;;;;;;;;;;;4964825;28;4505;-61
2022/11/07 04:21:19;;;;;;;;;;;;;;;;;;4985819;28;1119;-61
2022/11/07 04:23:44;;;;;;;;;;;;;;;;;;4988631;28;5132;-63
2022/11/07 04:28:53;;;;;;;;;;;;;;;;;;4985164;28;5088;-62
2022/11/07 04:31:19;;;;;;;;;;;;;;;;;;4992555;28;4583;-63
2022/11/07 04:33:44;;;;;;;;;;;;;;;;;;4993191;28;1304;-61
2022/11/07 04:36:09;;;;;;;;;;;;;;;;;;4992694;28;4454;-61
2022/11/07 04:38:34;;;;;;;;;;;;;;;;;;4982824;28;5065;-61
2022/11/07 04:41:00;;;;;;;;;;;;;;;;;;4992862;28;4934;-62
2022/11/07 04:43:26;;;;;;;;;;;;;;;;;;4990879;28;4997;-62
2022/11/07 04:45:51;;;;;;;;;;;;;;;;;;4993283;28;1872;-62
2022/11/07 04:48:16;;;;;;;;;;;;;;;;;;4996640;28;4865;-62
2022/11/07 04:50:42;;;;;;;;;;;;;;;;;;4990456;28;4484;-63
2022/11/07 04:53:10;;;;;;;;;;;;;;;;;;4987564;28;5511;-62
2022/11/07 04:55:35;;;;;;;;;;;;;;;;;;4992565;28;5043;-62
2022/11/07 04:58:00;;;;;;;;;;;;;;;;;;4992108;28;4732;-63
2022/11/07 05:00:26;;;;;;;;;;;;;;;;;;5002430;28;1517;-62
2022/11/07 05:02:51;;;;;;;;;;;;;;;;;;4991887;28;5042;-62
2022/11/07 05:05:16;;;;;;;;;;;;;;;;;;4989075;28;4732;-62
2022/11/07 05:07:42;;;;;;;;;;;;;;;;;;4983933;28;5058;-62
2022/11/07 05:10:07;;;;;;;;;;;;;;;;;;4986589;28;4523;-63
2022/11/07 05:12:32;;;;;;;;;;;;;;;;;;5002378;28;1926;-62
2022/11/07 05:14:58;;;;;;;;;;;;;;;;;;4992451;28;5128;-61
2022/11/07 05:17:23;;;;;;;;;;;;;;;;;;4990607;28;5070;-62
2022/11/07 05:19:48;;;;;;;;;;;;;;;;;;4989373;28;5021;-62
2022/11/07 05:24:57;;;;;;;;;;;;;;;;;;4986077;28;4690;-61
2022/11/07 05:27:23;;;;;;;;;;;;;;;;;;4997378;28;4586;-62
2022/11/07 05:29:48;;;;;;;;;;;;;;;;;;4973891;28;5153;-62
2022/11/07 05:32:13;;;;;;;;;;;;;;;;;;4989962;28;5623;-61
2022/11/07 05:34:38;;;;;;;;;;;;;;;;;;4990291;28;5100;-61
2022/11/07 05:37:07;;;;;;;;;;;;;;;;;;4984255;28;4572;-62
2022/11/07 05:39:33;;;;;;;;;;;;;;;;;;4982012;28;1162;-62
2022/11/07 05:41:58;;;;;;;;;;;;;;;;;;4990708;28;4841;-61
2022/11/07 05:44:24;;;;;;;;;;;;;;;;;;4991138;28;4968;-61
2022/11/07 05:46:49;;;;;;;;;;;;;;;;;;4991534;28;5129;-61
2022/11/07 05:49:14;;;;;;;;;;;;;;;;;;4991237;28;5380;-62
2022/11/07 05:51:40;;;;;;;;;;;;;;;;;;4990893;28;1967;-62
2022/11/07 05:54:06;;;;;;;;;;;;;;;;;;4993504;28;4610;-62
2022/11/07 05:56:31;;;;;;;;;;;;;;;;;;4997463;28;5387;-61
2022/11/07 05:58:56;;;;;;;;;;;;;;;;;;4990602;28;4900;-63
2022/11/07 06:01:22;;;;;;;;;;;;;;;;;;4990663;28;4995;-62
2022/11/07 06:03:47;;;;;;;;;;;;;;;;;;4976522;28;1203;-62
2022/11/07 06:06:12;;;;;;;;;;;;;;;;;;4990453;28;4652;-62
2022/11/07 06:08:37;;;;;;;;;;;;;;;;;;4990184;28;4461;-64
2022/11/07 06:11:03;;;;;;;;;;;;;;;;;;4982980;28;5113;-62
2022/11/07 06:13:28;;;;;;;;;;;;;;;;;;4990504;28;5499;-62
2022/11/07 06:15:54;;;;;;;;;;;;;;;;;;4979961;28;5178;-61
2022/11/07 06:18:19;;;;;;;;;;;;;;;;;;5000214;28;1816;-62
2022/11/07 06:20:44;;;;;;;;;;;;;;;;;;4988226;28;4696;-62
2022/11/07 06:23:10;;;;;;;;;;;;;;;;;;4990835;28;5075;-63
2022/11/07 06:25:35;;;;;;;;;;;;;;;;;;4990232;28;5203;-62
2022/11/07 06:28:01;;;;;;;;;;;;;;;;;;4973212;28;4844;-63
2022/11/07 06:30:26;;;;;;;;;;;;;;;;;;4989551;28;2092;-63
2022/11/07 06:32:51;;;;;;;;;;;;;;;;;;4989127;28;6225;-61
2022/11/07 06:35:17;;;;;;;;;;;;;;;;;;4988635;28;4727;-62
2022/11/07 06:37:42;;;;;;;;;;;;;;;;;;4982635;28;5020;-62
2022/11/07 06:40:08;;;;;;;;;;;;;;;;;;4975554;28;4982;-63
2022/11/07 06:42:33;;;;;;;;;;;;;;;;;;4992834;28;2131;-63
2022/11/07 06:44:58;;;;;;;;;;;;;;;;;;4973336;28;5073;-62
2022/11/07 06:47:23;;;;;;;;;;;;;;;;;;4993223;28;4481;-62
2022/11/07 06:49:49;;;;;;;;;;;;;;;;;;4955335;28;5222;-62
2022/11/07 06:52:15;;;;;;;;;;;;;;;;;;4993537;28;5143;-62
2022/11/07 06:54:40;;;;;;;;;;;;;;;;;;5001918;28;1061;-62
2022/11/07 06:57:06;;;;;;;;;;;;;;;;;;4992669;28;4974;-62
2022/11/07 06:59:31;;;;;;;;;;;;;;;;;;4996134;28;4991;-65
2022/11/07 07:01:56;;;;;;;;;;;;;;;;;;4988086;28;4681;-64
2022/11/07 07:04:22;;;;;;;;;;;;;;;;;;4999240;28;4773;-64
2022/11/07 07:06:47;;;;;;;;;;;;;;;;;;4990197;28;2037;-66
2022/11/07 07:09:12;;;;;;;;;;;;;;;;;;4984088;28;5038;-68
2022/11/07 07:11:38;;;;;;;;;;;;;;;;;;4998718;28;4533;-65
2022/11/07 07:14:04;;;;;;;;;;;;;;;;;;4965466;28;4526;-68
2022/11/07 07:16:29;;;;;;;;;;;;;;;;;;4985261;28;5084;-66
2022/11/07 07:18:55;;;;;;;;;;;;;;;;;;4968867;28;4537;-66
2022/11/07 07:21:20;;;;;;;;;;;;;;;;;;4992155;28;2061;-69
2022/11/07 07:23:45;;;;;;;;;;;;;;;;;;4979858;28;5051;-68
2022/11/07 07:26:11;;;;;;;;;;;;;;;;;;4983862;28;5331;-67
2022/11/07 07:28:36;;;;;;;;;;;;;;;;;;4991985;28;4917;-67
2022/11/07 07:31:08;;;;;;;;;;;;;;;;;;4991397;28;5533;-66
2022/11/07 07:33:34;;;;;;;;;;;;;;;;;;4984677;28;2100;-66
2022/11/07 07:36:01;;;;;;;;;;;;;;;;;;4984296;28;5539;-64
2022/11/07 07:38:26;;;;;;;;;;;;;;;;;;4977570;28;5545;-59
2022/11/07 07:40:51;;;;;;;;;;;;;;;;;;4983789;28;5047;-59
2022/11/07 07:43:16;;;;;;;;;;;;;;;;;;4968720;28;5219;-59
2022/11/07 07:45:42;;;;;;;;;;;;;;;;;;4986801;28;2112;-58
2022/11/07 07:48:07;;;;;;;;;;;;;;;;;;4999488;28;4962;-58
2022/11/07 07:50:32;;;;;;;;;;;;;;;;;;4983844;28;5054;-58
2022/11/07 07:52:57;;;;;;;;;;;;;;;;;;4990287;28;5284;-58
2022/11/07 07:55:23;;;;;;;;;;;;;;;;;;4987339;28;4645;-60
2022/11/07 07:57:48;;;;;;;;;;;;;;;;;;4970051;28;1527;-66
2022/11/07 08:00:14;;;;;;;;;;;;;;;;;;4970846;28;4987;-66
2022/11/07 08:02:42;;;;;;;;;;;;;;;;;;4987361;28;4945;-68
2022/11/07 08:05:07;;;;;;;;;;;;;;;;;;4987343;28;5127;-64
2022/11/07 08:07:47;;;;;;;;;;;;;;;;;;4970867;28;5121;-64
2022/11/07 08:10:27;;;;;;;;;;;;;;;;;;4984536;28;4981;-65
2022/11/07 08:12:54;;;;;;;;;;;;;;;;;;4986737;28;5205;-63
2022/11/07 08:15:20;;;;;;;;;;;;;;;;;;4985938;28;2048;-65
2022/11/07 08:17:45;;;;;;;;;;;;;;;;;;4988773;28;5123;-64
2022/11/07 08:20:15;;;;;;;;;;;;;;;;;;4988149;28;5397;-65
2022/11/07 08:22:40;;;;;;;;;;;;;;;;;;4980493;28;5137;-65
2022/11/07 08:25:06;;;;;;;;;;;;;;;;;;4967936;28;4568;-65
2022/11/07 08:27:34;;;;;;;;;;;;;;;;;;4986334;28;4783;-64
2022/11/07 08:29:59;;;;;;;;;;;;;;;;;;4982531;28;5235;-61
2022/11/07 08:32:27;;;;;;;;;;;;;;;;;;4987263;28;5098;-62
2022/11/07 08:34:53;;;;;;;;;;;;;;;;;;4968842;28;5101;-61
2022/11/07 08:37:18;;;;;;;;;;;;;;;;;;4994548;28;5004;-61
2022/11/07 08:39:43;;;;;;;;;;;;;;;;;;4989378;28;1217;-59
2022/11/07 08:42:10;;;;;;;;;;;;;;;;;;4984969;28;4917;-59
2022/11/07 08:44:35;;;;;;;;;;;;;;;;;;4982190;28;4440;-58
2022/11/07 08:47:01;;;;;;;;;;;;;;;;;;4975938;28;5181;-59
2022/11/07 08:49:27;;;;;;;;;;;;;;;;;;4988332;28;5061;-59
2022/11/07 08:51:52;;;;;;;;;;;;;;;;;;4999252;28;2059;-61
2022/11/07 08:56:52;;;;;;;;;;;;;;;;;;5120125;23;2001;-67
2022/11/07 08:59:17;;;;;;;;;;;;;;;;;;5004930;28;5046;-68
2022/11/07 09:01:43;;;;;;;;;;;;;;;;;;5006937;28;4539;-67
2022/11/07 09:04:08;;;;;;;;;;;;;;;;;;5006284;28;5135;-67
2022/11/07 09:06:33;;;;;;;;;;;;;;;;;;5007383;28;1547;-66
2022/11/07 09:08:59;;;;;;;;;;;;;;;;;;5006473;28;4494;-66
2022/11/07 09:11:24;;;;;;;;;;;;;;;;;;5005577;28;4488;-66
2022/11/07 09:13:50;;;;;;;;;;;;;;;;;;5006090;28;4689;-67
2022/11/07 09:16:18;;;;;;;;;;;;;;;;;;5005256;28;5039;-67
2022/11/07 09:18:44;;;;;;;;;;;;;;;;;;5011097;28;1366;-67
2022/11/07 09:21:09;;;;;;;;;;;;;;;;;;5004819;28;5231;-68
2022/11/07 09:23:35;;;;;;;;;;;;;;;;;;5009863;28;5322;-68
2022/11/07 09:26:00;;;;;;;;;;;;;;;;;;5009064;28;5000;-67
2022/11/07 09:28:25;;;;;;;;;;;;;;;;;;5009917;28;4684;-67
2022/11/07 09:30:54;;;;;;;;;;;;;;;;;;5008905;28;2116;-67
2022/11/07 09:33:19;;;;;;;;;;;;;;;;;;5008861;28;5082;-67
2022/11/07 09:35:45;;;;;;;;;;;;;;;;;;5006043;28;5000;-67
2022/11/07 09:38:10;;;;;;;;;;;;;;;;;;4992267;28;4492;-66
2022/11/07 09:40:39;;;;;;;;;;;;;;;;;;5002073;28;5216;-65
2022/11/07 09:43:04;;;;;;;;;;;;;;;;;;5008552;28;5046;-66
2022/11/07 09:45:29;;;;;;;;;;;;;;;;;;5005564;28;1988;-66
2022/11/07 09:48:04;;;;;;;;;;;;;;;;;;5005594;28;4523;-63
2022/11/07 09:50:34;;;;;;;;;;;;;;;;;;5003620;28;4651;-65
2022/11/07 09:53:17;;;;;;;;;;;;;;;;;;5008560;28;5069;-67
2022/11/07 09:55:52;;;;;;;;;;;;;;;;;;5009113;28;5070;-65
2022/11/07 09:58:19;;;;;;;;;;;;;;;;;;5009432;28;5012;-65
2022/11/07 10:00:44;;;;;;;;;;;;;;;;;;5003280;28;2073;-66
2022/11/07 10:03:10;;;;;;;;;;;;;;;;;;4994421;28;5307;-65
2022/11/07 10:05:45;;;;;;;;;;;;;;;;;;5007124;28;5120;-65
2022/11/07 10:32:37;;;;;;;;;;;;;;;;;;5000023;28;2154;-70
2022/11/07 10:35:24;;;;;;;;;;;;;;;;;;4986016;28;5328;-70
2022/11/07 10:37:52;;;;;;;;;;;;;;;;;;4993356;28;4547;-77
2022/11/07 10:40:17;;;;;;;;;;;;;;;;;;5007582;28;4944;-68
2022/11/07 10:42:42;;;;;;;;;;;;;;;;;;4983036;28;4843;-64
2022/11/07 10:45:11;;;;;;;;;;;;;;;;;;4985341;28;5156;-67
2022/11/07 10:47:38;;;;;;;;;;;;;;;;;;5009960;28;1101;-67
2022/11/07 10:50:20;;;;;;;;;;;;;;;;;;4995841;28;5037;-67
2022/11/07 10:52:56;;;;;;;;;;;;;;;;;;5016618;28;4969;-67
2022/11/07 10:55:21;;;;;;;;;;;;;;;;;;5004968;28;5124;-59
2022/11/07 10:57:49;;;;;;;;;;;;;;;;;;5003743;28;4568;-66
2022/11/07 11:00:21;;;;;;;;;;;;;;;;;;4987043;28;5083;-63
2022/11/07 11:02:46;;;;;;;;;;;;;;;;;;5005373;28;2043;-67
2022/11/07 11:05:15;;;;;;;;;;;;;;;;;;5005018;28;5023;-67
2022/11/07 11:07:40;;;;;;;;;;;;;;;;;;4984791;28;4873;-68
2022/11/07 11:10:32;;;;;;;;;;;;;;;;;;5000809;28;5205;-66
2022/11/07 11:12:57;;;;;;;;;;;;;;;;;;4988512;28;4741;-66
2022/11/07 11:15:23;;;;;;;;;;;;;;;;;;5007095;28;4518;-59
2022/11/07 11:18:09;;;;;;;;;;;;;;;;;;5004104;28;1937;-59
2022/11/07 11:20:34;;;;;;;;;;;;;;;;;;4979062;28;4889;-60
2022/11/07 11:23:00;;;;;;;;;;;;;;;;;;5003897;28;4419;-60
2022/11/07 11:25:25;;;;;;;;;;;;;;;;;;4979411;28;5006;-60
2022/11/07 11:27:55;;;;;;;;;;;;;;;;;;4988456;28;5168;-69
2022/11/07 11:30:20;;;;;;;;;;;;;;;;;;4986713;28;4901;-68
2022/11/07 11:33:02;;;;;;;;;;;;;;;;;;5027380;28;1910;-69
2022/11/07 11:35:35;;;;;;;;;;;;;;;;;;5013410;28;5045;-69
2022/11/07 11:38:07;;;;;;;;;;;;;;;;;;5003233;28;5086;-68
2022/11/07 11:40:35;;;;;;;;;;;;;;;;;;5014559;28;4564;-70
2022/11/07 11:43:10;;;;;;;;;;;;;;;;;;5009443;28;5163;-74
2022/11/07 11:45:38;;;;;;;;;;;;;;;;;;5015484;28;4610;-67
2022/11/07 11:48:25;;;;;;;;;;;;;;;;;;5023067;28;4661;-70
2022/11/07 11:50:51;;;;;;;;;;;;;;;;;;5015696;28;4664;-70
2022/11/07 11:53:17;;;;;;;;;;;;;;;;;;5019802;28;5408;-66
2022/11/07 11:55:49;;;;;;;;;;;;;;;;;;5013963;28;5160;-69
2022/11/07 11:58:23;;;;;;;;;;;;;;;;;;5025613;28;5102;-70
2022/11/07 12:00:52;;;;;;;;;;;;;;;;;;5008190;28;5136;-69
2022/11/07 12:03:21;;;;;;;;;;;;;;;;;;5027544;28;4462;-69
2022/11/07 12:06:05;;;;;;;;;;;;;;;;;;5012228;28;1102;-69
2022/11/07 12:08:42;;;;;;;;;;;;;;;;;;5017664;28;4926;-70
2022/11/07 12:11:10;;;;;;;;;;;;;;;;;;5027517;28;4609;-69
2022/11/07 12:13:41;;;;;;;;;;;;;;;;;;5027577;28;5088;-70
2022/11/07 12:16:06;;;;;;;;;;;;;;;;;;5009989;28;5075;-67
2022/11/07 12:18:31;;;;;;;;;;;;;;;;;;5018940;28;5048;-61
2022/11/07 12:21:03;;;;;;;;;;;;;;;;;;5022568;28;1873;-68
2022/11/07 12:23:48;;;;;;;;;;;;;;;;;;4998462;28;6446;-66
2022/11/07 12:26:29;;;;;;;;;;;;;;;;;;5003944;28;4519;-63
2022/11/07 12:29:07;;;;;;;;;;;;;;;;;;5037256;28;4860;-64
2022/11/07 12:31:35;;;;;;;;;;;;;;;;;;5000861;28;5054;-61
2022/11/07 12:34:16;;;;;;;;;;;;;;;;;;5012314;28;4501;-60
2022/11/07 12:36:49;;;;;;;;;;;;;;;;;;5019601;28;4494;-68
2022/11/07 12:39:17;;;;;;;;;;;;;;;;;;5024353;28;5061;-65
2022/11/07 12:41:45;;;;;;;;;;;;;;;;;;5028084;28;1847;-65
2022/11/07 12:44:10;;;;;;;;;;;;;;;;;;5031532;28;4938;-61
2022/11/07 12:46:42;;;;;;;;;;;;;;;;;;5026017;28;5157;-62
2022/11/07 12:49:26;;;;;;;;;;;;;;;;;;5037550;28;5143;-62
2022/11/07 12:51:51;;;;;;;;;;;;;;;;;;5024446;28;5075;-61
2022/11/07 12:54:29;;;;;;;;;;;;;;;;;;5030784;28;5003;-61
2022/11/07 12:56:54;;;;;;;;;;;;;;;;;;5026919;28;2143;-61
2022/11/07 12:59:25;;;;;;;;;;;;;;;;;;5010708;28;5311;-61
2022/11/07 13:01:54;;;;;;;;;;;;;;;;;;5007945;28;4506;-61
2022/11/07 13:04:20;;;;;;;;;;;;;;;;;;5029659;28;4474;-66
2022/11/07 13:06:48;;;;;;;;;;;;;;;;;;5011717;28;5209;-60
2022/11/07 13:09:23;;;;;;;;;;;;;;;;;;5015807;28;5065;-60
2022/11/07 13:12:08;;;;;;;;;;;;;;;;;;5029539;28;1977;-59
2022/11/07 13:14:37;;;;;;;;;;;;;;;;;;5003482;28;5097;-62
2022/11/07 13:17:08;;;;;;;;;;;;;;;;;;5026610;28;4987;-59
2022/11/07 13:19:34;;;;;;;;;;;;;;;;;;5020526;28;5025;-61
2022/11/07 13:21:59;;;;;;;;;;;;;;;;;;5027905;28;4885;-61
2022/11/07 13:24:24;;;;;;;;;;;;;;;;;;5019752;28;5207;-61
2022/11/07 13:26:50;;;;;;;;;;;;;;;;;;5024297;28;1997;-62
2022/11/07 13:29:20;;;;;;;;;;;;;;;;;;5023841;28;4767;-61
2022/11/07 13:31:45;;;;;;;;;;;;;;;;;;5004610;28;4463;-61
2022/11/07 13:34:31;;;;;;;;;;;;;;;;;;5002650;28;5060;-61
2022/11/07 13:36:58;;;;;;;;;;;;;;;;;;4983462;28;5132;-61
2022/11/07 13:39:23;;;;;;;;;;;;;;;;;;4999099;28;4610;-61
2022/11/07 13:41:48;;;;;;;;;;;;;;;;;;4986830;28;1985;-61
2022/11/07 13:44:19;;;;;;;;;;;;;;;;;;4994885;28;4658;-61
2022/11/07 13:46:45;;;;;;;;;;;;;;;;;;4977360;28;5059;-64
2022/11/07 13:49:14;;;;;;;;;;;;;;;;;;4993781;28;4547;-61
2022/11/07 13:51:44;;;;;;;;;;;;;;;;;;5009586;28;5087;-62
2022/11/07 13:54:25;;;;;;;;;;;;;;;;;;4981631;28;5740;-60
2022/11/07 13:56:51;;;;;;;;;;;;;;;;;;5009096;28;1814;-63
2022/11/07 13:59:27;;;;;;;;;;;;;;;;;;4990341;28;4475;-65
2022/11/07 14:01:53;;;;;;;;;;;;;;;;;;4987710;28;4950;-63
2022/11/07 14:04:19;;;;;;;;;;;;;;;;;;5015021;28;5097;-66
2022/11/07 14:06:45;;;;;;;;;;;;;;;;;;5008078;28;5330;-64
2022/11/07 14:09:14;;;;;;;;;;;;;;;;;;4992603;28;5153;-65
2022/11/07 14:11:39;;;;;;;;;;;;;;;;;;4989885;28;1972;-64
2022/11/07 14:14:05;;;;;;;;;;;;;;;;;;4970153;28;4575;-64
2022/11/07 14:16:30;;;;;;;;;;;;;;;;;;5004984;28;4561;-64
2022/11/07 14:18:57;;;;;;;;;;;;;;;;;;5017030;28;4679;-63
2022/11/07 14:21:24;;;;;;;;;;;;;;;;;;4989869;28;5022;-63
2022/11/07 14:23:49;;;;;;;;;;;;;;;;;;5004106;28;1846;-63
2022/11/07 14:26:29;;;;;;;;;;;;;;;;;;5004944;28;4954;-66
2022/11/07 14:28:56;;;;;;;;;;;;;;;;;;4993576;28;4987;-67
2022/11/07 14:31:24;;;;;;;;;;;;;;;;;;5004251;28;5261;-65
2022/11/07 14:33:51;;;;;;;;;;;;;;;;;;4988710;28;4951;-68
2022/11/07 14:36:16;;;;;;;;;;;;;;;;;;4988855;28;5316;-63
2022/11/07 14:39:07;;;;;;;;;;;;;;;;;;4998479;28;1822;-68
2022/11/07 14:41:34;;;;;;;;;;;;;;;;;;5007891;28;5145;-75
2022/11/07 14:44:01;;;;;;;;;;;;;;;;;;4985802;28;4988;-73
2022/11/07 14:46:27;;;;;;;;;;;;;;;;;;4970859;28;4820;-71
2022/11/07 14:48:52;;;;;;;;;;;;;;;;;;4993050;28;4591;-71
2022/11/07 14:51:20;;;;;;;;;;;;;;;;;;4981453;28;5107;-72
2022/11/07 14:54:03;;;;;;;;;;;;;;;;;;4982135;28;1803;-73
2022/11/07 14:56:29;;;;;;;;;;;;;;;;;;5006521;28;5134;-74
2022/11/07 14:58:54;;;;;;;;;;;;;;;;;;4995884;28;5498;-72
2022/11/07 15:01:24;;;;;;;;;;;;;;;;;;4991049;28;5018;-70
2022/11/07 15:03:59;;;;;;;;;;;;;;;;;;4990427;28;4538;-67
2022/11/07 15:06:32;;;;;;;;;;;;;;;;;;5008806;28;4522;-73
2022/11/07 15:08:58;;;;;;;;;;;;;;;;;;4993901;28;1916;-72
2022/11/07 15:11:26;;;;;;;;;;;;;;;;;;4987225;28;5188;-72
2022/11/07 15:13:51;;;;;;;;;;;;;;;;;;4990139;28;4969;-73
2022/11/07 15:16:17;;;;;;;;;;;;;;;;;;4992958;28;4548;-73
2022/11/07 15:18:43;;;;;;;;;;;;;;;;;;5006936;28;4801;-71
2022/11/07 15:21:10;;;;;;;;;;;;;;;;;;4977030;28;4498;-74
2022/11/07 15:23:35;;;;;;;;;;;;;;;;;;5001138;28;1893;-72
2022/11/07 15:26:06;;;;;;;;;;;;;;;;;;4998164;28;5005;-74
2022/11/07 15:28:52;;;;;;;;;;;;;;;;;;5006300;28;5006;-73
2022/11/07 15:31:20;;;;;;;;;;;;;;;;;;5011367;28;5061;-75
2022/11/07 15:33:45;;;;;;;;;;;;;;;;;;5017025;28;4507;-73
2022/11/07 15:36:11;;;;;;;;;;;;;;;;;;5018243;28;5561;-75
2022/11/07 15:38:36;;;;;;;;;;;;;;;;;;4994882;28;1976;-74
2022/11/07 15:41:01;;;;;;;;;;;;;;;;;;5013319;28;4704;-73
2022/11/07 15:43:27;;;;;;;;;;;;;;;;;;5008303;28;5190;-75
2022/11/07 15:45:52;;;;;;;;;;;;;;;;;;5019963;28;5130;-72
2022/11/07 15:48:18;;;;;;;;;;;;;;;;;;4999927;28;5074;-75
2022/11/07 15:50:44;;;;;;;;;;;;;;;;;;5002697;28;4580;-74
2022/11/07 15:53:27;;;;;;;;;;;;;;;;;;5020171;28;4490;-72
2022/11/07 15:55:53;;;;;;;;;;;;;;;;;;5008565;28;5050;-69
2022/11/07 15:58:22;;;;;;;;;;;;;;;;;;5010675;28;4815;-74
2022/11/07 16:00:48;;;;;;;;;;;;;;;;;;5025130;28;5307;-71
2022/11/07 16:03:16;;;;;;;;;;;;;;;;;;5028145;28;4499;-70
2022/11/07 16:05:45;;;;;;;;;;;;;;;;;;5001659;28;1760;-70
2022/11/07 16:08:14;;;;;;;;;;;;;;;;;;5026023;28;5001;-69
2022/11/07 16:10:40;;;;;;;;;;;;;;;;;;5023606;28;4950;-68
2022/11/07 16:13:06;;;;;;;;;;;;;;;;;;5006945;28;5174;-70
2022/11/07 16:15:31;;;;;;;;;;;;;;;;;;5010053;28;4919;-70
2022/11/07 16:17:57;;;;;;;;;;;;;;;;;;5025551;28;1387;-71
2022/11/07 16:20:23;;;;;;;;;;;;;;;;;;5024702;28;4914;-71
2022/11/07 16:22:48;;;;;;;;;;;;;;;;;;5022231;28;4687;-71
2022/11/07 16:25:18;;;;;;;;;;;;;;;;;;4990710;28;4787;-70
2022/11/07 16:27:46;;;;;;;;;;;;;;;;;;5030810;28;4904;-69
2022/11/07 16:30:14;;;;;;;;;;;;;;;;;;5008484;28;5653;-70
2022/11/07 16:32:40;;;;;;;;;;;;;;;;;;5026247;28;1913;-70
2022/11/07 16:35:05;;;;;;;;;;;;;;;;;;5008511;28;5129;-69
2022/11/07 16:37:30;;;;;;;;;;;;;;;;;;5021764;28;5050;-70
2022/11/07 16:39:56;;;;;;;;;;;;;;;;;;5027587;28;5070;-68
2022/11/07 16:42:21;;;;;;;;;;;;;;;;;;5031775;28;4510;-69
2022/11/07 16:44:46;;;;;;;;;;;;;;;;;;5024776;28;2069;-68
2022/11/07 16:47:12;;;;;;;;;;;;;;;;;;5024049;28;5016;-68
2022/11/07 16:49:38;;;;;;;;;;;;;;;;;;5020347;28;4756;-69
2022/11/07 16:52:03;;;;;;;;;;;;;;;;;;5022483;28;5145;-68
2022/11/07 16:54:28;;;;;;;;;;;;;;;;;;5008535;28;4534;-68
2022/11/07 16:56:55;;;;;;;;;;;;;;;;;;5024873;28;1989;-71
2022/11/07 16:59:21;;;;;;;;;;;;;;;;;;5006759;28;4993;-71
2022/11/07 17:01:47;;;;;;;;;;;;;;;;;;5020544;28;4431;-61
2022/11/07 17:04:12;;;;;;;;;;;;;;;;;;5019013;28;4570;-63
2022/11/07 17:06:42;;;;;;;;;;;;;;;;;;5003980;28;5169;-64
2022/11/07 17:09:09;;;;;;;;;;;;;;;;;;5007403;28;5297;-60
2022/11/07 17:11:34;;;;;;;;;;;;;;;;;;4990292;28;1906;-65
